createdAt,value
2017-11-12T00:00:53.386Z,97215.75
2017-11-12T00:01:57.422Z,97216.17
2017-11-12T00:03:01.121Z,97201.93
2017-11-12T00:04:04.829Z,97170.41
2017-11-12T00:05:08.423Z,97204.09
2017-11-12T00:06:12.027Z,97175.20
2017-11-12T00:07:15.588Z,97211.41
2017-11-12T00:08:20.034Z,97219.61
2017-11-12T00:09:23.762Z,97195.89
2017-11-12T00:10:27.692Z,97213.14
2017-11-12T00:11:31.578Z,97189.00
2017-11-12T00:12:35.282Z,97201.06
2017-11-12T00:13:39.036Z,97201.52
2017-11-12T00:14:42.901Z,97189.01
2017-11-12T00:15:46.490Z,97101.41
2017-11-12T00:16:50.135Z,97177.78
2017-11-12T00:17:53.746Z,97182.08
2017-11-12T00:18:57.370Z,97195.03
2017-11-12T00:20:01.058Z,97198.91
2017-11-12T00:21:05.268Z,97182.52
2017-11-12T00:22:08.871Z,97192.85
2017-11-12T00:23:12.526Z,97209.69
2017-11-12T00:24:16.097Z,97187.70
2017-11-12T00:25:19.754Z,97189.39
2017-11-12T00:26:23.429Z,97185.08
2017-11-12T00:27:27.429Z,97170.84
2017-11-12T00:28:31.118Z,97158.36
2017-11-12T00:29:35.122Z,97160.07
2017-11-12T00:30:38.808Z,97149.30
2017-11-12T00:31:42.706Z,97153.61
2017-11-12T00:32:46.402Z,97145.84
2017-11-12T00:33:50.447Z,97176.90
2017-11-12T00:34:54.115Z,97163.96
2017-11-12T00:35:57.816Z,97173.45
2017-11-12T00:37:01.519Z,97143.69
2017-11-12T00:38:05.227Z,97152.34
2017-11-12T00:39:08.916Z,97141.13
2017-11-12T00:40:12.910Z,97159.22
2017-11-12T00:41:16.736Z,97163.92
2017-11-12T00:42:20.579Z,97147.11
2017-11-12T00:43:24.264Z,97147.54
2017-11-12T00:44:27.926Z,97142.80
2017-11-12T00:45:31.615Z,97154.05
2017-11-12T00:46:35.591Z,97164.84
2017-11-12T00:47:39.249Z,97151.86
2017-11-12T00:48:42.908Z,97131.16
2017-11-12T00:49:46.574Z,97153.14
2017-11-12T00:50:50.243Z,97165.66
2017-11-12T00:51:53.886Z,97142.34
2017-11-12T00:52:57.864Z,97168.20
2017-11-12T00:54:02.014Z,97165.19
2017-11-12T00:55:05.693Z,97144.50
2017-11-12T00:56:09.641Z,97168.61
2017-11-12T00:57:13.411Z,97169.48
2017-11-12T00:58:17.126Z,97141.88
2017-11-12T00:59:20.916Z,97130.25
2017-11-12T01:00:24.453Z,97152.68
2017-11-12T01:01:27.963Z,97155.70
2017-11-12T01:02:31.504Z,97152.66
2017-11-12T01:03:35.041Z,97154.38
2017-11-12T01:04:38.613Z,97161.27
2017-11-12T01:05:42.597Z,97137.13
2017-11-12T01:06:46.263Z,97159.06
2017-11-12T01:07:50.000Z,97149.60
2017-11-12T01:08:53.793Z,97135.77
2017-11-12T01:09:57.539Z,97161.25
2017-11-12T01:11:01.241Z,97161.72
2017-11-12T01:12:05.112Z,97146.16
2017-11-12T01:13:08.803Z,97139.22
2017-11-12T01:14:12.464Z,97159.59
2017-11-12T01:15:16.164Z,97144.98
2017-11-12T01:16:19.866Z,97157.48
2017-11-12T01:17:23.505Z,97163.53
2017-11-12T01:18:27.533Z,97145.00
2017-11-12T01:19:31.264Z,97146.70
2017-11-12T01:20:34.895Z,97152.73
2017-11-12T01:21:38.623Z,97160.06
2017-11-12T01:22:42.277Z,97148.44
2017-11-12T01:23:45.988Z,97174.70
2017-11-12T01:24:49.979Z,97175.99
2017-11-12T01:25:53.631Z,97175.55
2017-11-12T01:26:57.353Z,97160.00
2017-11-12T01:28:01.047Z,97140.16
2017-11-12T01:29:04.814Z,97175.05
2017-11-12T01:30:08.470Z,97161.25
2017-11-12T01:31:12.457Z,97175.93
2017-11-12T01:32:16.146Z,97172.95
2017-11-12T01:33:19.893Z,97180.30
2017-11-12T01:34:23.553Z,97169.97
2017-11-12T01:35:27.281Z,97208.80
2017-11-12T01:36:30.927Z,97179.88
2017-11-12T01:37:35.042Z,97110.47
2017-11-12T01:38:39.642Z,97180.75
2017-11-12T01:39:43.272Z,97179.00
2017-11-12T01:40:46.860Z,97178.16
2017-11-12T01:41:50.530Z,97173.78
2017-11-12T01:42:54.193Z,97175.06
2017-11-12T01:43:58.120Z,97162.64
2017-11-12T01:45:01.815Z,97161.83
2017-11-12T01:46:05.494Z,97158.79
2017-11-12T01:47:09.176Z,97164.81
2017-11-12T01:48:12.864Z,97151.44
2017-11-12T01:49:16.536Z,97166.52
2017-11-12T01:50:20.505Z,97165.25
2017-11-12T01:51:24.275Z,97144.09
2017-11-12T01:52:27.951Z,97154.47
2017-11-12T01:53:31.485Z,97171.72
2017-11-12T01:54:34.992Z,97158.33
2017-11-12T01:55:38.515Z,97153.13
2017-11-12T01:56:42.857Z,97148.45
2017-11-12T01:57:47.496Z,97160.95
2017-11-12T01:58:51.095Z,97152.71
2017-11-12T01:59:54.719Z,97149.22
2017-11-12T02:00:58.427Z,97144.87
2017-11-12T02:02:02.039Z,97134.97
2017-11-12T02:03:05.901Z,97144.45
2017-11-12T02:04:09.502Z,97147.88
2017-11-12T02:05:13.078Z,97139.69
2017-11-12T02:06:17.436Z,97112.99
2017-11-12T02:07:21.078Z,97139.69
2017-11-12T02:08:24.746Z,97147.45
2017-11-12T02:09:28.708Z,97142.21
2017-11-12T02:10:32.365Z,97144.36
2017-11-12T02:11:36.030Z,97141.32
2017-11-12T02:12:39.549Z,97139.56
2017-11-12T02:13:43.179Z,97126.20
2017-11-12T02:14:46.887Z,97137.39
2017-11-12T02:15:50.857Z,97133.50
2017-11-12T02:16:54.659Z,97107.71
2017-11-12T02:17:58.333Z,97115.03
2017-11-12T02:19:02.098Z,97125.41
2017-11-12T02:20:06.643Z,97109.93
2017-11-12T02:21:10.154Z,97102.61
2017-11-12T02:22:14.078Z,97122.03
2017-11-12T02:23:17.568Z,97110.39
2017-11-12T02:24:21.135Z,97119.44
2017-11-12T02:25:25.307Z,97120.73
2017-11-12T02:26:28.819Z,97096.14
2017-11-12T02:27:32.467Z,97120.28
2017-11-12T02:28:36.269Z,97119.40
2017-11-12T02:29:39.826Z,97103.06
2017-11-12T02:30:43.355Z,97100.52
2017-11-12T02:31:46.875Z,97097.05
2017-11-12T02:32:50.391Z,97124.22
2017-11-12T02:33:53.957Z,97115.59
2017-11-12T02:34:57.840Z,97125.09
2017-11-12T02:36:01.370Z,97118.13
2017-11-12T02:37:04.967Z,97118.56
2017-11-12T02:38:08.698Z,97102.63
2017-11-12T02:39:12.363Z,97101.38
2017-11-12T02:40:16.047Z,97114.77
2017-11-12T02:41:20.029Z,97111.30
2017-11-12T02:42:23.815Z,97113.49
2017-11-12T02:43:27.548Z,97110.02
2017-11-12T02:44:31.279Z,97107.44
2017-11-12T02:45:34.985Z,97094.90
2017-11-12T02:46:38.644Z,97095.77
2017-11-12T02:47:42.735Z,97104.41
2017-11-12T02:48:46.965Z,97091.49
2017-11-12T02:49:50.674Z,97096.65
2017-11-12T02:50:54.386Z,97097.93
2017-11-12T02:51:58.108Z,97087.13
2017-11-12T02:53:01.796Z,97091.89
2017-11-12T02:54:05.773Z,97078.97
2017-11-12T02:55:09.451Z,97082.46
2017-11-12T02:56:13.362Z,97088.05
2017-11-12T02:57:17.140Z,97088.50
2017-11-12T02:58:20.807Z,97066.09
2017-11-12T02:59:24.520Z,97066.05
2017-11-12T03:00:28.489Z,97078.97
2017-11-12T03:01:32.203Z,97078.56
2017-11-12T03:02:35.983Z,97074.68
2017-11-12T03:03:39.693Z,97089.73
2017-11-12T03:04:43.401Z,97093.59
2017-11-12T03:05:47.067Z,97097.48
2017-11-12T03:06:51.051Z,97099.20
2017-11-12T03:07:54.739Z,97095.33
2017-11-12T03:08:58.350Z,97069.45
2017-11-12T03:10:02.180Z,96987.20
2017-11-12T03:11:05.831Z,97079.47
2017-11-12T03:12:09.485Z,97090.64
2017-11-12T03:13:13.247Z,97088.05
2017-11-12T03:14:16.793Z,97102.69
2017-11-12T03:15:20.249Z,97092.31
2017-11-12T03:16:23.820Z,97090.56
2017-11-12T03:17:27.385Z,97082.36
2017-11-12T03:18:31.041Z,97081.07
2017-11-12T03:19:35.150Z,97013.84
2017-11-12T03:20:39.510Z,97074.63
2017-11-12T03:21:43.230Z,97046.24
2017-11-12T03:22:46.953Z,97053.58
2017-11-12T03:23:50.651Z,97068.66
2017-11-12T03:24:54.393Z,97055.29
2017-11-12T03:25:58.132Z,97047.95
2017-11-12T03:27:01.675Z,97061.26
2017-11-12T03:28:05.260Z,97067.69
2017-11-12T03:29:08.971Z,97062.54
2017-11-12T03:30:12.841Z,97083.27
2017-11-12T03:31:16.384Z,97042.31
2017-11-12T03:32:20.089Z,97085.36
2017-11-12T03:33:23.799Z,97078.84
2017-11-12T03:34:27.499Z,97069.77
2017-11-12T03:35:31.220Z,97051.67
2017-11-12T03:36:35.318Z,97047.02
2017-11-12T03:37:39.237Z,97054.34
2017-11-12T03:38:42.952Z,97054.34
2017-11-12T03:39:46.648Z,97016.02
2017-11-12T03:40:50.357Z,97051.78
2017-11-12T03:41:54.048Z,97059.54
2017-11-12T03:42:57.999Z,97050.92
2017-11-12T03:44:01.706Z,97026.39
2017-11-12T03:45:05.427Z,97034.53
2017-11-12T03:46:09.049Z,97037.95
2017-11-12T03:47:13.426Z,96987.54
2017-11-12T03:48:17.026Z,97024.14
2017-11-12T03:49:20.965Z,97034.48
2017-11-12T03:50:24.604Z,96984.52
2017-11-12T03:51:28.284Z,97030.58
2017-11-12T03:52:31.992Z,97029.30
2017-11-12T03:53:35.658Z,97031.88
2017-11-12T03:54:39.370Z,97031.02
2017-11-12T03:55:43.346Z,97034.87
2017-11-12T03:56:47.021Z,97022.78
2017-11-12T03:57:50.709Z,97023.20
2017-11-12T03:58:54.400Z,97030.52
2017-11-12T03:59:58.091Z,97033.63
2017-11-12T04:01:01.798Z,97036.27
2017-11-12T04:02:05.910Z,97035.44
2017-11-12T04:03:09.595Z,97034.14
2017-11-12T04:04:13.181Z,97031.56
2017-11-12T04:05:16.811Z,97022.52
2017-11-12T04:06:20.422Z,97030.25
2017-11-12T04:07:24.019Z,97009.55
2017-11-12T04:08:28.012Z,97023.81
2017-11-12T04:09:31.717Z,97009.56
2017-11-12T04:10:35.373Z,97028.55
2017-11-12T04:11:39.052Z,96987.62
2017-11-12T04:12:42.727Z,97006.56
2017-11-12T04:13:46.411Z,97008.30
2017-11-12T04:14:50.452Z,97003.95
2017-11-12T04:15:54.129Z,97006.98
2017-11-12T04:16:57.872Z,97004.40
2017-11-12T04:18:01.645Z,97017.74
2017-11-12T04:19:05.433Z,97020.30
2017-11-12T04:20:09.044Z,97023.70
2017-11-12T04:21:13.064Z,97022.03
2017-11-12T04:22:16.657Z,97025.06
2017-11-12T04:23:20.275Z,97025.10
2017-11-12T04:24:23.884Z,97030.71
2017-11-12T04:25:27.491Z,97030.28
2017-11-12T04:26:31.084Z,97026.83
2017-11-12T04:27:34.991Z,97022.10
2017-11-12T04:28:38.689Z,97022.49
2017-11-12T04:29:42.392Z,97002.66
2017-11-12T04:30:46.079Z,97007.85
2017-11-12T04:31:49.739Z,96996.19
2017-11-12T04:32:53.425Z,97003.95
2017-11-12T04:33:57.363Z,97013.84
2017-11-12T04:35:01.012Z,97000.03
2017-11-12T04:36:04.745Z,96982.81
2017-11-12T04:37:08.496Z,96997.47
2017-11-12T04:38:12.217Z,96981.50
2017-11-12T04:39:15.921Z,96983.70
2017-11-12T04:40:19.982Z,96983.26
2017-11-12T04:41:23.689Z,96990.17
2017-11-12T04:42:27.423Z,97019.88
2017-11-12T04:43:31.133Z,97001.74
2017-11-12T04:44:34.859Z,96999.97
2017-11-12T04:45:38.559Z,97006.84
2017-11-12T04:46:42.644Z,96996.48
2017-11-12T04:47:46.363Z,97004.11
2017-11-12T04:48:50.098Z,96978.05
2017-11-12T04:49:53.792Z,97002.16
2017-11-12T04:50:57.472Z,96996.11
2017-11-12T04:52:01.318Z,96978.88
2017-11-12T04:53:05.337Z,96987.92
2017-11-12T04:54:09.060Z,96989.16
2017-11-12T04:55:12.840Z,96984.42
2017-11-12T04:56:16.572Z,96981.38
2017-11-12T04:57:20.372Z,96966.31
2017-11-12T04:58:24.103Z,96974.96
2017-11-12T04:59:28.108Z,96975.81
2017-11-12T05:00:31.843Z,96971.05
2017-11-12T05:01:35.840Z,96974.50
2017-11-12T05:02:39.551Z,96979.66
2017-11-12T05:03:43.250Z,96958.53
2017-11-12T05:04:46.931Z,96955.95
2017-11-12T05:05:50.959Z,96964.61
2017-11-12T05:06:54.696Z,96965.88
2017-11-12T05:07:58.406Z,96952.94
2017-11-12T05:09:02.118Z,96962.43
2017-11-12T05:10:05.812Z,96955.99
2017-11-12T05:11:09.532Z,96958.11
2017-11-12T05:12:13.648Z,96955.49
2017-11-12T05:13:17.387Z,96962.83
2017-11-12T05:14:21.075Z,96939.05
2017-11-12T05:15:24.745Z,96948.05
2017-11-12T05:16:28.431Z,96937.34
2017-11-12T05:17:32.135Z,96944.68
2017-11-12T05:18:37.257Z,96924.00
2017-11-12T05:19:40.957Z,96935.12
2017-11-12T05:20:44.652Z,96942.05
2017-11-12T05:21:48.376Z,96941.20
2017-11-12T05:22:52.111Z,96913.16
2017-11-12T05:23:55.779Z,96921.73
2017-11-12T05:24:59.774Z,96919.52
2017-11-12T05:26:03.528Z,96929.31
2017-11-12T05:27:07.239Z,96908.20
2017-11-12T05:28:10.913Z,96903.19
2017-11-12T05:29:15.296Z,96902.00
2017-11-12T05:30:19.023Z,96920.02
2017-11-12T05:31:23.123Z,96870.47
2017-11-12T05:32:26.788Z,96918.19
2017-11-12T05:33:30.555Z,96901.48
2017-11-12T05:34:34.252Z,96877.38
2017-11-12T05:35:38.004Z,96913.98
2017-11-12T05:36:41.717Z,96896.80
2017-11-12T05:37:45.664Z,96908.82
2017-11-12T05:38:49.347Z,96876.44
2017-11-12T05:39:53.020Z,96881.97
2017-11-12T05:40:56.768Z,96906.88
2017-11-12T05:42:00.324Z,96861.27
2017-11-12T05:43:04.021Z,96896.53
2017-11-12T05:44:07.604Z,96907.73
2017-11-12T05:45:11.161Z,96900.09
2017-11-12T05:46:14.705Z,96911.69
2017-11-12T05:47:18.234Z,96912.09
2017-11-12T05:48:21.848Z,96921.98
2017-11-12T05:49:25.624Z,96911.17
2017-11-12T05:50:29.650Z,96914.24
2017-11-12T05:51:33.396Z,96906.95
2017-11-12T05:52:37.182Z,96909.09
2017-11-12T05:53:40.905Z,96899.92
2017-11-12T05:54:44.611Z,96919.77
2017-11-12T05:55:48.912Z,96789.78
2017-11-12T05:56:52.876Z,96903.69
2017-11-12T05:57:56.619Z,96900.20
2017-11-12T05:59:00.387Z,96900.54
2017-11-12T06:00:04.113Z,96863.48
2017-11-12T06:01:07.777Z,96878.20
2017-11-12T06:02:11.461Z,96886.86
2017-11-12T06:03:15.611Z,96869.23
2017-11-12T06:04:19.355Z,96874.02
2017-11-12T06:05:23.112Z,96862.81
2017-11-12T06:06:28.122Z,96876.13
2017-11-12T06:07:31.991Z,96871.42
2017-11-12T06:08:35.701Z,96870.98
2017-11-12T06:09:39.705Z,96863.69
2017-11-12T06:10:43.536Z,96864.58
2017-11-12T06:11:47.227Z,96859.89
2017-11-12T06:12:50.951Z,96854.70
2017-11-12T06:13:54.767Z,96870.19
2017-11-12T06:14:58.594Z,96837.48
2017-11-12T06:16:02.616Z,96854.16
2017-11-12T06:17:06.297Z,96839.11
2017-11-12T06:18:10.136Z,96838.30
2017-11-12T06:19:14.057Z,96847.69
2017-11-12T06:20:17.845Z,96839.08
2017-11-12T06:21:21.603Z,96817.09
2017-11-12T06:22:25.638Z,96852.38
2017-11-12T06:23:29.407Z,96835.11
2017-11-12T06:24:33.218Z,96832.10
2017-11-12T06:25:37.019Z,96832.03
2017-11-12T06:26:40.884Z,96830.72
2017-11-12T06:27:44.651Z,96805.34
2017-11-12T06:28:48.670Z,96827.14
2017-11-12T06:29:52.365Z,96821.16
2017-11-12T06:30:56.139Z,96822.92
2017-11-12T06:31:59.869Z,96821.28
2017-11-12T06:33:03.751Z,96816.55
2017-11-12T06:34:07.453Z,96821.25
2017-11-12T06:35:11.811Z,96823.88
2017-11-12T06:36:15.506Z,96817.80
2017-11-12T06:37:19.248Z,96833.02
2017-11-12T06:38:22.980Z,96790.80
2017-11-12T06:39:27.702Z,96812.63
2017-11-12T06:40:31.339Z,96806.08
2017-11-12T06:41:35.478Z,96779.98
2017-11-12T06:42:39.114Z,96798.93
2017-11-12T06:43:42.785Z,96797.26
2017-11-12T06:44:46.422Z,96790.78
2017-11-12T06:45:50.085Z,96791.26
2017-11-12T06:46:53.663Z,96788.73
2017-11-12T06:47:57.748Z,96772.34
2017-11-12T06:49:01.432Z,96770.21
2017-11-12T06:50:05.126Z,96770.63
2017-11-12T06:51:08.885Z,96765.89
2017-11-12T06:52:12.600Z,96696.66
2017-11-12T06:53:16.495Z,96640.88
2017-11-12T06:54:20.568Z,96761.41
2017-11-12T06:55:24.334Z,96722.29
2017-11-12T06:56:28.041Z,96752.29
2017-11-12T06:57:31.772Z,96742.49
2017-11-12T06:58:35.526Z,96757.16
2017-11-12T06:59:39.357Z,96755.41
2017-11-12T07:00:44.016Z,96767.33
2017-11-12T07:01:47.749Z,96760.76
2017-11-12T07:02:51.950Z,96760.23
2017-11-12T07:03:55.534Z,96755.44
2017-11-12T07:04:59.138Z,96752.03
2017-11-12T07:06:02.618Z,96746.84
2017-11-12T07:07:06.400Z,96754.73
2017-11-12T07:08:09.861Z,96747.36
2017-11-12T07:09:13.446Z,96744.38
2017-11-12T07:10:17.108Z,96744.79
2017-11-12T07:11:20.728Z,96737.89
2017-11-12T07:12:24.548Z,96725.92
2017-11-12T07:13:28.543Z,96724.67
2017-11-12T07:14:33.270Z,96742.36
2017-11-12T07:15:37.009Z,96735.45
2017-11-12T07:16:41.049Z,96735.91
2017-11-12T07:17:44.771Z,96724.66
2017-11-12T07:18:48.412Z,96740.47
2017-11-12T07:19:52.424Z,96724.02
2017-11-12T07:20:56.121Z,96710.27
2017-11-12T07:21:59.831Z,96715.90
2017-11-12T07:23:03.565Z,96702.91
2017-11-12T07:24:07.326Z,96652.23
2017-11-12T07:25:11.066Z,96708.88
2017-11-12T07:26:14.800Z,96703.38
2017-11-12T07:27:18.512Z,96688.78
2017-11-12T07:28:22.274Z,96708.07
2017-11-12T07:29:25.940Z,96698.03
2017-11-12T07:30:29.665Z,96677.20
2017-11-12T07:31:33.366Z,96687.93
2017-11-12T07:32:37.355Z,96684.07
2017-11-12T07:33:41.089Z,96678.09
2017-11-12T07:34:44.858Z,96668.62
2017-11-12T07:35:48.898Z,96680.22
2017-11-12T07:36:53.003Z,96658.00
2017-11-12T07:37:56.675Z,96676.82
2017-11-12T07:39:00.697Z,96684.97
2017-11-12T07:40:04.518Z,96667.30
2017-11-12T07:41:08.309Z,96655.23
2017-11-12T07:42:11.996Z,96680.25
2017-11-12T07:43:15.710Z,96674.57
2017-11-12T07:44:19.401Z,96672.34
2017-11-12T07:45:23.398Z,96673.22
2017-11-12T07:46:27.119Z,96664.17
2017-11-12T07:47:30.882Z,96656.77
2017-11-12T07:48:34.588Z,96667.56
2017-11-12T07:49:38.327Z,96662.17
2017-11-12T07:50:42.504Z,96622.81
2017-11-12T07:51:47.455Z,96654.64
2017-11-12T07:52:51.134Z,96655.13
2017-11-12T07:53:54.844Z,96650.41
2017-11-12T07:54:58.579Z,96634.11
2017-11-12T07:56:02.298Z,96631.63
2017-11-12T07:57:06.102Z,96630.80
2017-11-12T07:58:10.135Z,96632.50
2017-11-12T07:59:13.711Z,96645.77
2017-11-12T08:00:17.307Z,96625.11
2017-11-12T08:01:20.942Z,96634.52
2017-11-12T08:02:24.627Z,96617.83
2017-11-12T08:03:28.283Z,96632.87
2017-11-12T08:04:32.102Z,96623.81
2017-11-12T08:05:35.769Z,96627.30
2017-11-12T08:06:39.535Z,96602.78
2017-11-12T08:07:43.306Z,96628.64
2017-11-12T08:08:47.032Z,96614.09
2017-11-12T08:09:50.758Z,96618.69
2017-11-12T08:10:54.528Z,96604.08
2017-11-12T08:11:58.272Z,96600.57
2017-11-12T08:13:01.995Z,96617.26
2017-11-12T08:14:05.772Z,96613.32
2017-11-12T08:15:09.495Z,96537.41
2017-11-12T08:16:13.456Z,96598.67
2017-11-12T08:17:17.066Z,96606.33
2017-11-12T08:18:20.622Z,96598.59
2017-11-12T08:19:24.334Z,96579.23
2017-11-12T08:20:27.952Z,96594.02
2017-11-12T08:21:31.673Z,96590.05
2017-11-12T08:22:35.724Z,96594.83
2017-11-12T08:23:39.480Z,96595.22
2017-11-12T08:24:44.062Z,96591.38
2017-11-12T08:25:47.644Z,96598.36
2017-11-12T08:26:51.481Z,96492.74
2017-11-12T08:27:55.142Z,96596.84
2017-11-12T08:28:59.327Z,96601.83
2017-11-12T08:30:03.058Z,96579.88
2017-11-12T08:31:06.869Z,96601.42
2017-11-12T08:32:10.683Z,96605.52
2017-11-12T08:33:14.596Z,96606.39
2017-11-12T08:34:18.489Z,96609.20
2017-11-12T08:35:22.614Z,96606.09
2017-11-12T08:36:26.589Z,96611.57
2017-11-12T08:37:30.417Z,96604.51
2017-11-12T08:38:34.465Z,96596.69
2017-11-12T08:39:38.239Z,96558.86
2017-11-12T08:40:42.151Z,96596.30
2017-11-12T08:41:46.344Z,96594.04
2017-11-12T08:42:50.172Z,96587.08
2017-11-12T08:43:53.989Z,96591.19
2017-11-12T08:44:57.830Z,96604.97
2017-11-12T08:46:01.824Z,96597.84
2017-11-12T08:47:05.620Z,96603.09
2017-11-12T08:48:09.827Z,96591.86
2017-11-12T08:49:13.637Z,96593.06
2017-11-12T08:50:17.393Z,96592.02
2017-11-12T08:51:21.248Z,96589.38
2017-11-12T08:52:25.128Z,96590.54
2017-11-12T08:53:28.905Z,96585.22
2017-11-12T08:54:32.998Z,96573.59
2017-11-12T08:55:36.782Z,96572.70
2017-11-12T08:56:40.615Z,96580.40
2017-11-12T08:57:44.340Z,96583.82
2017-11-12T08:58:48.083Z,96577.16
2017-11-12T08:59:51.867Z,96588.81
2017-11-12T09:00:55.450Z,96581.73
2017-11-12T09:01:59.153Z,96558.59
2017-11-12T09:03:02.845Z,96582.73
2017-11-12T09:04:06.664Z,96580.20
2017-11-12T09:05:10.420Z,96566.16
2017-11-12T09:06:14.048Z,96570.05
2017-11-12T09:07:18.190Z,96567.95
2017-11-12T09:08:21.843Z,96580.83
2017-11-12T09:09:25.549Z,96572.44
2017-11-12T09:10:29.234Z,96575.72
2017-11-12T09:11:33.119Z,96580.95
2017-11-12T09:12:36.963Z,96578.70
2017-11-12T09:13:41.066Z,96573.09
2017-11-12T09:14:44.869Z,96564.80
2017-11-12T09:15:48.780Z,96565.09
2017-11-12T09:16:52.633Z,96562.51
2017-11-12T09:17:56.496Z,96556.14
2017-11-12T09:19:00.287Z,96542.19
2017-11-12T09:20:04.470Z,96525.89
2017-11-12T09:21:08.250Z,96545.67
2017-11-12T09:22:12.060Z,96524.19
2017-11-12T09:23:15.881Z,96544.38
2017-11-12T09:24:19.786Z,96543.05
2017-11-12T09:25:23.582Z,96535.78
2017-11-12T09:26:27.688Z,96532.11
2017-11-12T09:27:31.509Z,96530.16
2017-11-12T09:28:35.329Z,96525.44
2017-11-12T09:29:39.319Z,96494.58
2017-11-12T09:30:44.537Z,96414.66
2017-11-12T09:31:48.371Z,96515.09
2017-11-12T09:36:53.779Z,96493.66
2017-11-12T09:37:57.798Z,96509.89
2017-11-12T09:39:01.644Z,96470.59
2017-11-12T09:40:05.374Z,96491.38
2017-11-12T09:41:09.531Z,96489.84
2017-11-12T09:42:13.576Z,96509.63
2017-11-12T09:43:17.458Z,96497.55
2017-11-12T09:44:21.292Z,96456.13
2017-11-12T09:45:25.122Z,96480.98
2017-11-12T09:46:28.955Z,96498.47
2017-11-12T09:47:32.811Z,96500.48
2017-11-12T09:48:36.680Z,96502.19
2017-11-12T09:49:40.357Z,96478.23
2017-11-12T09:50:44.034Z,96503.69
2017-11-12T09:51:47.697Z,96491.89
2017-11-12T09:52:51.542Z,96460.47
2017-11-12T09:53:55.353Z,96457.87
2017-11-12T09:54:59.453Z,96449.31
2017-11-12T09:56:03.483Z,96488.08
2017-11-12T09:57:07.314Z,96476.07
2017-11-12T09:58:11.110Z,96467.14
2017-11-12T09:59:14.997Z,96452.94
2017-11-12T10:00:18.697Z,96461.68
2017-11-12T10:01:22.818Z,96468.12
2017-11-12T10:02:26.630Z,96444.17
2017-11-12T10:03:30.469Z,96433.89
2017-11-12T10:04:34.300Z,96443.66
2017-11-12T10:05:38.091Z,96455.30
2017-11-12T10:06:41.891Z,96418.38
2017-11-12T10:07:45.691Z,96435.00
2017-11-12T10:08:49.494Z,96400.53
2017-11-12T10:09:53.365Z,96418.83
2017-11-12T10:10:57.043Z,96408.83
2017-11-12T10:12:00.718Z,96408.83
2017-11-12T10:13:05.081Z,96413.61
2017-11-12T10:14:09.031Z,96417.64
2017-11-12T10:15:12.776Z,96419.44
2017-11-12T10:16:16.558Z,96422.48
2017-11-12T10:17:20.259Z,96424.98
2017-11-12T10:18:23.964Z,96411.77
2017-11-12T10:19:28.352Z,96418.55
2017-11-12T10:20:32.167Z,96318.16
2017-11-12T10:21:36.207Z,96409.63
2017-11-12T10:22:40.047Z,96403.12
2017-11-12T10:23:43.950Z,96380.77
2017-11-12T10:24:47.778Z,96375.58
2017-11-12T10:25:51.943Z,96378.83
2017-11-12T10:26:55.735Z,96373.66
2017-11-12T10:27:59.542Z,96343.15
2017-11-12T10:29:03.414Z,96362.66
2017-11-12T10:30:07.382Z,96317.27
2017-11-12T10:31:11.198Z,96352.17
2017-11-12T10:32:15.389Z,96346.98
2017-11-12T10:33:19.171Z,96302.63
2017-11-12T10:34:22.995Z,96319.56
2017-11-12T10:35:26.913Z,96327.98
2017-11-12T10:36:30.743Z,96302.17
2017-11-12T10:37:34.633Z,96298.16
2017-11-12T10:38:38.723Z,96290.80
2017-11-12T10:39:42.565Z,96287.75
2017-11-12T10:40:46.373Z,96283.34
2017-11-12T10:41:50.259Z,96273.48
2017-11-12T10:42:54.584Z,96300.73
2017-11-12T10:43:58.423Z,96324.79
2017-11-12T10:45:02.592Z,96319.68
2017-11-12T10:46:06.442Z,96277.72
2017-11-12T10:47:10.624Z,96318.02
2017-11-12T10:48:15.273Z,96341.41
2017-11-12T10:49:19.382Z,96316.11
2017-11-12T10:50:23.223Z,96327.56
2017-11-12T10:51:27.424Z,96302.20
2017-11-12T10:52:32.094Z,96344.66
2017-11-12T10:53:36.004Z,96340.44
2017-11-12T10:54:41.162Z,96339.89
2017-11-12T10:55:45.012Z,96334.11
2017-11-12T10:56:49.241Z,96318.64
2017-11-12T10:57:53.478Z,96328.05
2017-11-12T10:58:57.318Z,96339.95
2017-11-12T11:00:01.244Z,96349.90
2017-11-12T11:01:05.155Z,96329.98
2017-11-12T11:02:08.936Z,96338.82
2017-11-12T11:03:12.740Z,96321.25
2017-11-12T11:04:16.886Z,96328.88
2017-11-12T11:05:20.771Z,96323.34
2017-11-12T11:06:24.583Z,96320.44
2017-11-12T11:07:28.443Z,96295.22
2017-11-12T11:08:32.272Z,96315.98
2017-11-12T11:09:35.961Z,96267.39
2017-11-12T11:10:39.991Z,96273.34
2017-11-12T11:11:43.642Z,96270.36
2017-11-12T11:12:48.125Z,96310.81
2017-11-12T11:13:51.756Z,96305.20
2017-11-12T11:14:55.457Z,96282.79
2017-11-12T11:15:59.113Z,96279.96
2017-11-12T11:17:03.364Z,96261.39
2017-11-12T11:18:07.093Z,96264.80
2017-11-12T11:19:10.800Z,96284.38
2017-11-12T11:20:15.352Z,96291.09
2017-11-12T11:21:19.141Z,96299.03
2017-11-12T11:22:23.237Z,96288.87
2017-11-12T11:23:27.070Z,96306.39
2017-11-12T11:24:30.996Z,96310.19
2017-11-12T11:25:34.969Z,96306.17
2017-11-12T11:26:38.810Z,96312.07
2017-11-12T11:27:42.643Z,96307.47
2017-11-12T11:28:46.460Z,96303.92
2017-11-12T11:29:50.653Z,96295.80
2017-11-12T11:30:54.481Z,96312.77
2017-11-12T11:31:58.517Z,96313.88
2017-11-12T11:33:02.375Z,96322.29
2017-11-12T11:34:06.310Z,96319.52
2017-11-12T11:35:10.141Z,96322.25
2017-11-12T11:36:14.235Z,96324.12
2017-11-12T11:37:18.075Z,96301.34
2017-11-12T11:38:22.016Z,96302.81
2017-11-12T11:39:25.882Z,96263.78
2017-11-12T11:40:29.786Z,96309.46
2017-11-12T11:41:33.611Z,96251.17
2017-11-12T11:42:37.654Z,96281.84
2017-11-12T11:43:41.496Z,96273.87
2017-11-12T11:44:45.382Z,96284.27
2017-11-12T11:45:49.318Z,96285.47
2017-11-12T11:46:54.152Z,96291.89
2017-11-12T11:47:58.857Z,96281.94
2017-11-12T11:49:03.148Z,96281.62
2017-11-12T11:50:07.448Z,96277.51
2017-11-12T11:51:12.366Z,96279.73
2017-11-12T11:52:16.167Z,96276.22
2017-11-12T11:53:20.826Z,96253.41
2017-11-12T11:54:25.599Z,96270.02
2017-11-12T11:55:29.476Z,96279.23
2017-11-12T11:56:33.363Z,96266.59
2017-11-12T11:57:38.657Z,96271.95
2017-11-12T11:58:43.745Z,96266.48
2017-11-12T11:59:47.714Z,96260.64
2017-11-12T12:00:52.082Z,96279.14
2017-11-12T12:01:56.085Z,96277.22
2017-11-12T12:02:59.931Z,96281.50
2017-11-12T12:04:03.779Z,96150.84
2017-11-12T12:05:07.481Z,96276.68
2017-11-12T12:06:11.196Z,96246.23
2017-11-12T12:07:16.045Z,96165.60
2017-11-12T12:08:20.376Z,96269.85
2017-11-12T12:09:24.336Z,96258.99
2017-11-12T12:10:30.163Z,96268.64
2017-11-12T12:11:42.301Z,96267.73
2017-11-12T12:12:46.263Z,96268.98
2017-11-12T12:13:50.814Z,96272.86
2017-11-12T12:14:55.420Z,96269.97
2017-11-12T12:15:59.357Z,96273.90
2017-11-12T12:17:03.352Z,96267.30
2017-11-12T12:18:07.188Z,96247.21
2017-11-12T12:19:11.188Z,96258.89
2017-11-12T12:20:15.393Z,96266.67
2017-11-12T12:21:19.235Z,96267.39
2017-11-12T12:22:23.073Z,96254.10
2017-11-12T12:23:26.962Z,96270.98
2017-11-12T12:24:31.398Z,96270.69
2017-11-12T12:25:35.282Z,96238.95
2017-11-12T12:26:39.406Z,96261.31
2017-11-12T12:27:43.244Z,96281.27
2017-11-12T12:28:47.102Z,96264.50
2017-11-12T12:29:50.917Z,96279.70
2017-11-12T12:30:54.795Z,96277.05
2017-11-12T12:31:58.615Z,96244.13
2017-11-12T12:33:02.747Z,96270.80
2017-11-12T12:34:06.568Z,96248.16